createdAt,value
2018-07-15T00:00:12.457Z,89.70
2018-07-15T00:02:41.108Z,89.90
2018-07-15T00:05:11.203Z,90.00
2018-07-15T00:07:39.936Z,90.10
2018-07-15T00:10:08.641Z,90.20
2018-07-15T00:12:37.383Z,90.50
2018-07-15T00:15:06.430Z,90.20
2018-07-15T00:17:35.040Z,90.20
2018-07-15T00:20:03.776Z,90.30
2018-07-15T00:22:32.375Z,90.30
2018-07-15T00:25:01.042Z,90.30
2018-07-15T00:27:29.751Z,90.20
2018-07-15T00:29:58.459Z,90.20
2018-07-15T00:34:55.484Z,90.80
2018-07-15T00:37:24.036Z,90.40
2018-07-15T00:39:52.748Z,90.50
2018-07-15T00:42:21.548Z,90.60
2018-07-15T00:44:50.227Z,90.80
2018-07-15T00:47:18.995Z,90.80
2018-07-15T00:49:47.619Z,90.80
2018-07-15T00:52:16.308Z,91.20
2018-07-15T00:54:44.902Z,91.20
2018-07-15T00:57:13.599Z,91.30
2018-07-15T00:59:42.262Z,91.40
2018-07-15T01:02:10.892Z,91.60
2018-07-15T01:04:39.604Z,91.60
2018-07-15T01:07:08.223Z,91.80
2018-07-15T01:09:36.883Z,91.80
2018-07-15T01:12:05.694Z,91.90
2018-07-15T01:14:34.370Z,91.90
2018-07-15T01:17:03.037Z,91.80
2018-07-15T01:19:31.664Z,91.80
2018-07-15T01:22:00.296Z,92.20
2018-07-15T01:24:28.876Z,92.10
2018-07-15T01:26:57.444Z,92.10
2018-07-15T01:29:26.671Z,92.10
2018-07-15T01:31:55.430Z,92.20
2018-07-15T01:34:24.110Z,92.20
2018-07-15T01:36:52.678Z,92.30
2018-07-15T01:39:23.310Z,92.30
2018-07-15T01:41:51.978Z,92.30
2018-07-15T01:44:20.646Z,92.60
2018-07-15T01:46:49.367Z,92.70
2018-07-15T01:49:18.017Z,92.70
2018-07-15T01:51:46.721Z,92.80
2018-07-15T01:54:15.348Z,92.90
2018-07-15T01:56:44.031Z,92.80
2018-07-15T01:59:12.736Z,92.80
2018-07-15T02:01:41.412Z,92.80
2018-07-15T02:04:10.058Z,92.80
2018-07-15T02:06:38.658Z,93.00
2018-07-15T02:09:07.390Z,92.70
2018-07-15T02:11:36.122Z,92.70
2018-07-15T02:14:04.924Z,92.80
2018-07-15T02:16:33.410Z,92.60
2018-07-15T02:19:01.994Z,92.50
2018-07-15T02:21:30.582Z,92.30
2018-07-15T02:23:59.306Z,92.50
2018-07-15T02:26:27.906Z,92.40
2018-07-15T02:28:56.670Z,92.40
2018-07-15T02:31:25.318Z,92.50
2018-07-15T02:33:53.970Z,92.60
2018-07-15T02:36:22.676Z,92.60
2018-07-15T02:38:51.389Z,92.40
2018-07-15T02:41:20.102Z,92.60
2018-07-15T02:43:48.682Z,92.80
2018-07-15T02:46:17.274Z,92.90
2018-07-15T02:48:46.009Z,93.00
2018-07-15T02:51:14.700Z,92.90
2018-07-15T02:53:43.477Z,93.10
2018-07-15T02:56:12.155Z,93.20
2018-07-15T02:58:40.896Z,93.20
2018-07-15T03:01:09.519Z,93.30
2018-07-15T03:03:38.281Z,93.40
2018-07-15T03:06:07.061Z,93.50
2018-07-15T03:08:35.742Z,93.40
2018-07-15T03:11:04.522Z,93.50
2018-07-15T03:13:33.265Z,93.60
2018-07-15T03:16:02.008Z,93.40
2018-07-15T03:18:30.702Z,93.60
2018-07-15T03:20:59.486Z,93.50
2018-07-15T03:23:28.156Z,93.60
2018-07-15T03:25:56.824Z,93.70
2018-07-15T03:28:25.928Z,94.10
2018-07-15T03:30:54.642Z,93.90
2018-07-15T03:33:23.227Z,93.90
2018-07-15T03:35:51.920Z,93.80
2018-07-15T03:38:20.510Z,93.90
2018-07-15T03:40:49.194Z,93.90
2018-07-15T03:43:17.939Z,94.00
2018-07-15T03:45:46.690Z,94.10
2018-07-15T03:48:15.410Z,94.10
2018-07-15T03:50:44.144Z,94.10
2018-07-15T03:53:12.838Z,94.20
2018-07-15T03:55:41.550Z,94.30
2018-07-15T03:58:10.445Z,94.40
2018-07-15T04:00:39.165Z,94.40
2018-07-15T04:03:07.897Z,94.50
2018-07-15T04:05:36.545Z,94.40
2018-07-15T04:08:05.261Z,94.40
2018-07-15T04:10:34.026Z,94.50
2018-07-15T04:13:02.722Z,94.60
2018-07-15T04:15:31.466Z,94.60
2018-07-15T04:18:05.215Z,94.70
2018-07-15T04:20:35.505Z,94.70
2018-07-15T04:23:05.236Z,94.60
2018-07-15T04:25:34.645Z,94.60
2018-07-15T04:28:04.177Z,94.60
2018-07-15T04:30:32.991Z,94.60
2018-07-15T04:33:01.766Z,94.50
2018-07-15T04:35:30.589Z,94.60
2018-07-15T04:37:59.363Z,94.40
2018-07-15T04:40:27.979Z,94.50
2018-07-15T04:42:56.721Z,94.40
2018-07-15T04:45:25.391Z,94.70
2018-07-15T04:47:54.051Z,94.40
2018-07-15T04:50:22.756Z,94.40
2018-07-15T04:52:51.371Z,93.90
2018-07-15T04:55:20.054Z,93.70
2018-07-15T04:57:48.792Z,93.80
2018-07-15T05:00:17.453Z,93.60
2018-07-15T05:02:46.937Z,93.30
2018-07-15T05:05:15.590Z,92.80
2018-07-15T05:07:44.328Z,92.90
2018-07-15T05:10:13.073Z,93.20
2018-07-15T05:12:41.776Z,93.00
2018-07-15T05:15:10.396Z,92.70
2018-07-15T05:17:39.179Z,92.60
2018-07-15T05:20:07.965Z,92.40
2018-07-15T05:22:36.559Z,92.50
2018-07-15T05:25:05.427Z,92.30
2018-07-15T05:27:34.024Z,92.20
2018-07-15T05:30:02.606Z,92.00
2018-07-15T05:32:31.305Z,91.70
2018-07-15T05:35:00.059Z,91.60
2018-07-15T05:37:30.204Z,91.70
2018-07-15T05:39:58.941Z,91.90
2018-07-15T05:42:27.667Z,92.00
2018-07-15T05:44:56.391Z,91.60
2018-07-15T05:47:25.042Z,91.20
2018-07-15T05:49:53.752Z,91.00
2018-07-15T05:52:22.496Z,91.40
2018-07-15T05:54:51.086Z,91.00
2018-07-15T05:57:19.960Z,90.50
2018-07-15T05:59:48.661Z,90.40
2018-07-15T06:02:17.397Z,90.40
2018-07-15T06:04:45.997Z,90.10
2018-07-15T06:07:14.742Z,89.30
2018-07-15T06:09:43.866Z,88.70
2018-07-15T06:12:12.671Z,88.60
2018-07-15T06:14:41.514Z,89.30
2018-07-15T06:17:10.328Z,89.30
2018-07-15T06:19:39.059Z,86.10
2018-07-15T06:22:07.875Z,86.90
2018-07-15T06:24:36.664Z,87.00
2018-07-15T06:27:05.353Z,86.40
2018-07-15T06:29:34.023Z,85.30
2018-07-15T06:32:02.721Z,83.70
2018-07-15T06:34:31.737Z,83.70
2018-07-15T06:37:00.492Z,83.30
2018-07-15T06:39:29.159Z,82.40
2018-07-15T06:41:57.927Z,82.50
2018-07-15T06:44:26.698Z,80.20
2018-07-15T06:46:55.431Z,81.40
2018-07-15T06:49:24.150Z,82.00
2018-07-15T06:51:52.727Z,81.50
2018-07-15T06:54:21.450Z,80.70
2018-07-15T06:56:50.091Z,78.90
2018-07-15T06:59:18.774Z,77.50
2018-07-15T07:01:47.501Z,77.20
2018-07-15T07:04:16.207Z,75.90
2018-07-15T07:06:44.873Z,75.40
2018-07-15T07:09:13.539Z,76.20
2018-07-15T07:11:42.150Z,75.90
2018-07-15T07:14:11.531Z,75.90
2018-07-15T07:16:40.319Z,76.30
2018-07-15T07:19:08.991Z,73.70
2018-07-15T07:21:37.683Z,72.80
2018-07-15T07:24:06.621Z,73.30
2018-07-15T07:26:35.351Z,68.90
2018-07-15T07:29:04.165Z,68.80
2018-07-15T07:31:32.903Z,71.00
2018-07-15T07:34:01.590Z,69.00
2018-07-15T07:36:30.330Z,65.90
2018-07-15T07:38:58.991Z,64.60
2018-07-15T07:41:27.780Z,64.30
2018-07-15T07:43:56.579Z,64.10
2018-07-15T07:46:25.356Z,63.80
2018-07-15T07:48:54.083Z,63.30
2018-07-15T07:51:22.862Z,63.80
2018-07-15T07:53:51.607Z,64.20
2018-07-15T07:56:20.299Z,64.70
2018-07-15T07:58:49.010Z,62.30
2018-07-15T08:01:17.735Z,61.70
2018-07-15T08:03:46.431Z,61.90
2018-07-15T08:06:15.315Z,60.70
2018-07-15T08:08:44.074Z,61.00
2018-07-15T08:11:15.959Z,59.40
2018-07-15T08:13:44.591Z,59.40
2018-07-15T08:16:13.355Z,59.70
2018-07-15T08:18:44.688Z,59.40
2018-07-15T08:21:13.355Z,58.90
2018-07-15T08:23:42.095Z,58.80
2018-07-15T08:26:10.709Z,58.80
2018-07-15T08:28:40.039Z,57.80
2018-07-15T08:31:14.119Z,58.60
2018-07-15T08:33:43.938Z,56.80
2018-07-15T08:36:13.003Z,56.00
2018-07-15T08:38:41.889Z,57.70
2018-07-15T08:41:10.642Z,58.30
2018-07-15T08:43:39.326Z,56.40
2018-07-15T08:46:08.290Z,57.20
2018-07-15T08:48:36.963Z,56.80
2018-07-15T08:51:05.606Z,56.30
2018-07-15T08:53:34.305Z,56.30
2018-07-15T08:56:03.009Z,56.70
2018-07-15T08:58:31.761Z,54.10
2018-07-15T09:01:00.505Z,54.40
2018-07-15T09:03:29.311Z,54.80
2018-07-15T09:05:58.079Z,55.00
2018-07-15T09:08:26.910Z,54.40
2018-07-15T09:10:55.667Z,52.10
2018-07-15T09:13:24.475Z,52.90
2018-07-15T09:15:53.534Z,52.40
2018-07-15T09:18:22.503Z,52.90
2018-07-15T09:20:51.542Z,52.80
2018-07-15T09:23:20.747Z,51.70
2018-07-15T09:25:49.921Z,50.50
2018-07-15T09:28:18.835Z,50.50
2018-07-15T09:30:47.735Z,50.30
2018-07-15T09:33:16.615Z,48.90
2018-07-15T09:35:45.765Z,47.50
2018-07-15T09:38:14.771Z,49.20
2018-07-15T09:43:12.324Z,45.30
2018-07-15T09:45:41.193Z,44.40
2018-07-15T09:48:10.107Z,45.80
2018-07-15T09:50:40.663Z,46.50
2018-07-15T09:53:09.555Z,46.40
2018-07-15T09:55:38.612Z,47.50
2018-07-15T09:58:07.678Z,47.60
2018-07-15T10:00:41.910Z,46.70
2018-07-15T10:03:11.595Z,47.20
2018-07-15T10:05:40.459Z,44.40
2018-07-15T10:08:09.605Z,44.70
2018-07-15T10:10:38.172Z,44.40
2018-07-15T10:13:06.680Z,44.20
2018-07-15T10:15:35.166Z,44.80
2018-07-15T10:18:03.710Z,44.90
2018-07-15T10:20:32.207Z,44.00
2018-07-15T10:23:00.725Z,45.40
2018-07-15T10:25:29.308Z,43.80
2018-07-15T10:27:57.861Z,43.00
2018-07-15T10:30:26.333Z,44.80
2018-07-15T10:32:54.915Z,42.80
2018-07-15T10:35:23.430Z,43.20
2018-07-15T10:37:52.487Z,42.30
2018-07-15T10:40:21.107Z,42.20
2018-07-15T10:42:49.667Z,42.60
2018-07-15T10:45:18.175Z,42.50
2018-07-15T10:47:46.745Z,42.50
2018-07-15T10:50:15.235Z,42.50
2018-07-15T10:52:43.847Z,39.30
2018-07-15T10:55:12.299Z,39.20
2018-07-15T11:00:09.183Z,40.60
2018-07-15T11:02:37.708Z,39.00
2018-07-15T11:05:06.943Z,39.30
2018-07-15T11:07:35.553Z,37.50
2018-07-15T11:10:04.130Z,37.60
2018-07-15T11:12:32.670Z,37.20
2018-07-15T11:15:01.211Z,36.70
2018-07-15T11:17:29.706Z,38.60
2018-07-15T11:19:58.238Z,36.20
2018-07-15T11:22:26.808Z,35.80
2018-07-15T11:24:55.260Z,37.70
2018-07-15T11:29:51.954Z,37.90
2018-07-15T11:32:20.463Z,37.20
2018-07-15T11:34:49.027Z,37.60
2018-07-15T11:39:45.755Z,37.00
2018-07-15T11:42:14.267Z,37.70
2018-07-15T11:47:10.987Z,37.80
2018-07-15T11:49:39.555Z,36.90
2018-07-15T11:52:08.097Z,37.80
2018-07-15T11:54:36.717Z,36.50
2018-07-15T11:57:05.221Z,37.20
2018-07-15T11:59:34.145Z,36.30
2018-07-15T12:02:02.765Z,36.70
2018-07-15T12:04:31.531Z,36.70
2018-07-15T12:07:00.115Z,37.80
2018-07-15T12:09:28.756Z,36.80
2018-07-15T12:11:57.389Z,35.40
2018-07-15T12:14:25.977Z,35.70
2018-07-15T12:16:54.632Z,33.90
2018-07-15T12:19:23.294Z,35.40
2018-07-15T12:21:52.037Z,36.90
2018-07-15T12:24:20.841Z,35.90
2018-07-15T12:26:49.539Z,35.60
2018-07-15T12:29:18.171Z,35.60
2018-07-15T12:31:46.802Z,35.30
2018-07-15T12:34:21.595Z,36.50
2018-07-15T12:36:50.810Z,36.20
2018-07-15T12:39:19.808Z,35.20
2018-07-15T12:41:48.771Z,35.30
2018-07-15T12:44:17.555Z,36.30
2018-07-15T12:46:46.537Z,35.40
2018-07-15T12:49:15.485Z,36.70
2018-07-15T12:51:44.407Z,36.60
2018-07-15T12:54:13.246Z,35.20
2018-07-15T12:56:42.157Z,36.70
2018-07-15T12:59:11.559Z,35.20
2018-07-15T13:01:40.385Z,35.90
2018-07-15T13:04:09.510Z,36.50
2018-07-15T13:06:38.718Z,36.10
2018-07-15T13:09:07.955Z,35.00
2018-07-15T13:11:36.977Z,35.40
2018-07-15T13:14:05.953Z,36.00
2018-07-15T13:16:34.769Z,35.50
2018-07-15T13:19:03.657Z,34.60
2018-07-15T13:21:32.485Z,36.90
2018-07-15T13:24:01.272Z,35.40
2018-07-15T13:26:30.131Z,33.30
2018-07-15T13:28:59.046Z,34.30
2018-07-15T13:31:27.893Z,34.20
2018-07-15T13:33:56.752Z,32.20
2018-07-15T13:36:25.526Z,33.50
2018-07-15T13:38:54.316Z,35.10
2018-07-15T13:41:23.071Z,33.90
2018-07-15T13:43:51.809Z,33.10
2018-07-15T13:46:20.812Z,34.40
2018-07-15T13:48:49.779Z,33.30
2018-07-15T13:51:18.578Z,34.20
2018-07-15T13:53:47.340Z,33.80
2018-07-15T13:56:16.162Z,34.60
2018-07-15T13:58:45.113Z,34.30
2018-07-15T14:01:14.222Z,35.50
2018-07-15T14:03:43.197Z,35.60
2018-07-15T14:06:12.155Z,35.20
2018-07-15T14:08:41.110Z,35.30
2018-07-15T14:11:10.498Z,36.50
2018-07-15T14:13:40.109Z,35.10
2018-07-15T14:16:09.279Z,36.70
2018-07-15T14:18:38.159Z,37.30
2018-07-15T14:21:07.798Z,40.20
2018-07-15T14:23:36.793Z,40.10
2018-07-15T14:26:06.284Z,37.20
2018-07-15T14:31:03.685Z,37.10
2018-07-15T14:33:32.554Z,37.60
2018-07-15T14:36:02.097Z,37.40
2018-07-15T14:38:30.870Z,36.80
2018-07-15T14:40:59.914Z,37.50
2018-07-15T14:43:28.916Z,38.60
2018-07-15T14:45:57.995Z,38.00
2018-07-15T14:48:26.950Z,37.20
2018-07-15T14:50:56.332Z,38.70
2018-07-15T14:53:25.485Z,37.60
2018-07-15T14:58:23.146Z,35.90
2018-07-15T15:00:52.043Z,37.10
2018-07-15T15:03:20.898Z,37.50
2018-07-15T15:05:49.905Z,37.40
2018-07-15T15:08:19.903Z,38.10
2018-07-15T15:10:48.985Z,36.90
2018-07-15T15:13:18.338Z,35.80
2018-07-15T15:15:47.203Z,36.40
2018-07-15T15:18:16.055Z,37.10
2018-07-15T15:20:44.885Z,38.20
2018-07-15T15:23:13.787Z,38.80
2018-07-15T15:25:42.599Z,38.60
2018-07-15T15:28:11.377Z,38.90
2018-07-15T15:30:40.063Z,39.60
2018-07-15T15:33:09.126Z,41.50
2018-07-15T15:35:37.866Z,40.30
2018-07-15T15:38:06.667Z,41.50
2018-07-15T15:40:35.440Z,43.60
2018-07-15T15:43:04.357Z,44.00
2018-07-15T15:45:33.284Z,44.60
2018-07-15T15:48:02.600Z,44.20
2018-07-15T15:50:31.499Z,44.10
2018-07-15T15:53:00.407Z,42.60
2018-07-15T15:55:29.156Z,43.20
2018-07-15T15:57:57.905Z,43.90
2018-07-15T16:00:26.761Z,43.40
2018-07-15T16:02:55.526Z,43.70
2018-07-15T16:05:24.381Z,42.80
2018-07-15T16:07:53.128Z,44.10
2018-07-15T16:10:21.935Z,44.50
2018-07-15T16:12:50.644Z,43.40
2018-07-15T16:15:19.485Z,41.80
2018-07-15T16:17:48.163Z,42.60
2018-07-15T16:20:16.873Z,42.40
2018-07-15T16:22:45.515Z,41.40
2018-07-15T16:25:14.167Z,41.00
2018-07-15T16:27:42.970Z,41.60
2018-07-15T16:30:14.478Z,42.80
2018-07-15T16:32:43.067Z,42.00
2018-07-15T16:35:11.771Z,41.30
2018-07-15T16:37:40.478Z,43.20
2018-07-15T16:40:09.159Z,43.90
2018-07-15T16:42:37.656Z,45.30
2018-07-15T16:45:06.339Z,47.40
2018-07-15T16:47:35.083Z,45.80
2018-07-15T16:50:04.002Z,45.80
2018-07-15T16:52:32.853Z,45.50
2018-07-15T16:55:01.550Z,44.80
2018-07-15T16:57:30.342Z,45.20
2018-07-15T16:59:59.137Z,46.20
2018-07-15T17:02:27.963Z,47.20
2018-07-15T17:04:56.659Z,48.70
2018-07-15T17:07:25.336Z,47.60
2018-07-15T17:09:54.927Z,48.10
2018-07-15T17:12:23.711Z,48.40
2018-07-15T17:14:52.443Z,46.90
2018-07-15T17:17:21.168Z,47.60
2018-07-15T17:19:49.922Z,49.20
2018-07-15T17:22:18.671Z,48.60
2018-07-15T17:24:47.465Z,49.40
2018-07-15T17:27:16.448Z,49.60
2018-07-15T17:29:45.633Z,48.80
2018-07-15T17:32:14.387Z,49.60
2018-07-15T17:34:43.185Z,50.20
2018-07-15T17:37:11.948Z,53.20
2018-07-15T17:39:40.555Z,52.70
2018-07-15T17:42:09.352Z,53.60
2018-07-15T17:44:38.107Z,55.00
2018-07-15T17:47:07.183Z,56.20
2018-07-15T17:49:35.928Z,56.70
2018-07-15T17:52:04.711Z,55.60
2018-07-15T17:54:33.435Z,55.90
2018-07-15T17:57:02.151Z,62.20
2018-07-15T17:59:30.990Z,67.00
2018-07-15T18:01:59.784Z,70.10
2018-07-15T18:04:28.449Z,71.40
2018-07-15T18:06:57.155Z,72.20
2018-07-15T18:09:25.802Z,71.80
2018-07-15T18:11:54.337Z,71.00
2018-07-15T18:14:23.098Z,69.40
2018-07-15T18:16:51.805Z,69.80
2018-07-15T18:19:20.560Z,70.00
2018-07-15T18:21:49.460Z,71.20
2018-07-15T18:24:18.293Z,72.70
2018-07-15T18:26:46.769Z,71.60
2018-07-15T18:29:15.379Z,71.80
2018-07-15T18:31:44.034Z,73.50
2018-07-15T18:34:12.693Z,72.50
2018-07-15T18:36:42.654Z,72.40
2018-07-15T18:39:11.561Z,72.50
2018-07-15T18:41:40.365Z,71.60
2018-07-15T18:44:09.125Z,70.90
2018-07-15T18:46:37.840Z,70.70
2018-07-15T18:49:06.651Z,71.40
2018-07-15T18:51:35.271Z,70.80
2018-07-15T18:54:04.512Z,71.90
2018-07-15T18:56:33.396Z,71.70
2018-07-15T18:59:02.125Z,71.00
2018-07-15T19:01:30.859Z,72.50
2018-07-15T19:03:59.507Z,72.70
2018-07-15T19:06:28.180Z,72.00
2018-07-15T19:08:56.787Z,72.10
2018-07-15T19:11:25.555Z,73.30
2018-07-15T19:13:54.427Z,73.60
2018-07-15T19:16:23.222Z,73.70
2018-07-15T19:18:52.098Z,72.40
2018-07-15T19:21:21.002Z,71.50
2018-07-15T19:23:49.609Z,72.50
2018-07-15T19:26:18.386Z,72.60
2018-07-15T19:28:47.063Z,70.80
2018-07-15T19:31:15.848Z,72.80
2018-07-15T19:33:44.585Z,71.70
2018-07-15T19:36:13.272Z,71.30
2018-07-15T19:38:41.778Z,72.10
2018-07-15T19:41:10.342Z,72.60
2018-07-15T19:43:38.944Z,72.50
2018-07-15T19:46:07.624Z,73.30
2018-07-15T19:48:36.195Z,71.70
2018-07-15T19:51:04.837Z,72.30
2018-07-15T19:53:33.497Z,73.70
2018-07-15T19:56:02.124Z,71.00
2018-07-15T19:58:31.086Z,71.30
2018-07-15T20:00:59.846Z,71.70
2018-07-15T20:03:28.519Z,73.30
2018-07-15T20:05:57.084Z,73.00
2018-07-15T20:08:25.778Z,73.00
2018-07-15T20:10:54.395Z,74.10
2018-07-15T20:13:23.069Z,74.30
2018-07-15T20:15:51.686Z,73.90
2018-07-15T20:18:20.375Z,74.10
2018-07-15T20:20:49.074Z,73.10
2018-07-15T20:23:17.824Z,72.90
2018-07-15T20:25:46.540Z,72.70
2018-07-15T20:28:15.264Z,73.20
2018-07-15T20:30:43.895Z,73.50
2018-07-15T20:33:12.653Z,72.80
2018-07-15T20:35:41.301Z,72.90
2018-07-15T20:38:09.949Z,73.00
2018-07-15T20:40:38.554Z,72.80
2018-07-15T20:43:07.135Z,73.20
2018-07-15T20:45:35.711Z,73.00
2018-07-15T20:48:04.411Z,73.50
2018-07-15T20:50:32.989Z,73.80
2018-07-15T20:53:01.615Z,73.30
2018-07-15T20:57:58.467Z,73.30
2018-07-15T21:00:27.193Z,75.70
2018-07-15T21:02:55.789Z,75.50
2018-07-15T21:05:24.369Z,75.60
2018-07-15T21:07:52.980Z,74.80
2018-07-15T21:10:21.541Z,75.00
2018-07-15T21:12:50.158Z,74.20
2018-07-15T21:15:19.178Z,74.50
2018-07-15T21:17:47.894Z,74.90
2018-07-15T21:20:16.726Z,75.10
2018-07-15T21:22:45.303Z,75.60
2018-07-15T21:25:13.903Z,75.70
2018-07-15T21:27:42.391Z,75.30
2018-07-15T21:30:10.931Z,75.00
2018-07-15T21:32:39.599Z,75.40
2018-07-15T21:35:08.183Z,75.10
2018-07-15T21:37:36.704Z,75.70
2018-07-15T21:40:05.391Z,75.50
2018-07-15T21:42:33.930Z,75.50
2018-07-15T21:45:02.461Z,74.80
2018-07-15T21:47:31.417Z,74.80
2018-07-15T21:50:00.002Z,75.10
2018-07-15T21:52:28.660Z,74.70
2018-07-15T21:54:57.279Z,75.50
2018-07-15T21:57:25.920Z,75.10
2018-07-15T21:59:54.558Z,75.20
2018-07-15T22:02:25.386Z,75.40
2018-07-15T22:04:56.816Z,75.70
2018-07-15T22:07:36.618Z,75.50
2018-07-15T22:10:16.724Z,75.40
2018-07-15T22:12:45.425Z,75.50
2018-07-15T22:15:13.977Z,75.70
2018-07-15T22:17:42.662Z,75.60
2018-07-15T22:20:11.280Z,76.30
2018-07-15T22:22:40.040Z,76.60
2018-07-15T22:25:08.693Z,76.20
2018-07-15T22:27:37.372Z,76.20
2018-07-15T22:30:05.962Z,76.40
2018-07-15T22:32:34.539Z,76.20
2018-07-15T22:35:03.130Z,76.30
2018-07-15T22:37:32.723Z,76.80
2018-07-15T22:40:01.314Z,76.40
2018-07-15T22:42:29.862Z,76.70
2018-07-15T22:44:58.437Z,77.10
2018-07-15T22:47:27.102Z,77.20
2018-07-15T22:49:55.684Z,77.30
2018-07-15T22:52:24.295Z,77.20
2018-07-15T22:54:53.022Z,77.00
2018-07-15T22:57:21.580Z,77.00
2018-07-15T22:59:50.171Z,77.10
2018-07-15T23:02:18.740Z,77.10
2018-07-15T23:05:57.763Z,76.90
2018-07-15T23:08:28.661Z,77.10
2018-07-15T23:10:57.319Z,77.40
2018-07-15T23:13:26.134Z,77.40
2018-07-15T23:15:54.792Z,77.60
2018-07-15T23:18:23.498Z,78.10
2018-07-15T23:20:52.512Z,77.90
2018-07-15T23:23:21.980Z,78.40
2018-07-15T23:25:50.626Z,78.70
2018-07-15T23:28:19.206Z,79.00
2018-07-15T23:30:47.815Z,79.50
2018-07-15T23:33:16.426Z,79.90
2018-07-15T23:35:45.036Z,79.60
2018-07-15T23:38:13.676Z,79.30
2018-07-15T23:40:42.425Z,81.10
2018-07-15T23:43:11.026Z,81.10
2018-07-15T23:45:39.684Z,81.50
2018-07-15T23:48:08.338Z,81.40
2018-07-15T23:50:37.016Z,81.60
2018-07-15T23:53:05.634Z,81.70
2018-07-15T23:55:34.245Z,81.40
2018-07-15T23:58:02.838Z,81.80
